sensor_id;sensor_type;location;lat;lon;timestamp;P1;durP1;ratioP1;P2;durP2;ratioP2
7657;SDS011;8462;53.156;8.220;2023-02-05T00:01:02;5.97;;;4.67;;
7657;SDS011;8462;53.156;8.220;2023-02-05T00:03:29;7.00;;;3.97;;
7657;SDS011;8462;53.156;8.220;2023-02-05T00:05:55;8.07;;;4.90;;
7657;SDS011;8462;53.156;8.220;2023-02-05T00:08:22;9.77;;;4.87;;
7657;SDS011;8462;53.156;8.220;2023-02-05T00:10:52;6.77;;;4.63;;
7657;SDS011;8462;53.156;8.220;2023-02-05T00:13:19;8.20;;;4.23;;
7657;SDS011;8462;53.156;8.220;2023-02-05T00:15:46;7.83;;;4.10;;
7657;SDS011;8462;53.156;8.220;2023-02-05T00:18:13;4.77;;;3.37;;
7657;SDS011;8462;53.156;8.220;2023-02-05T00:20:40;5.93;;;3.63;;
7657;SDS011;8462;53.156;8.220;2023-02-05T00:23:07;7.43;;;4.17;;
7657;SDS011;8462;53.156;8.220;2023-02-05T00:25:34;8.67;;;4.23;;
7657;SDS011;8462;53.156;8.220;2023-02-05T00:28:02;6.17;;;4.30;;
7657;SDS011;8462;53.156;8.220;2023-02-05T00:30:29;6.57;;;4.13;;
7657;SDS011;8462;53.156;8.220;2023-02-05T00:32:56;6.93;;;3.40;;
7657;SDS011;8462;53.156;8.220;2023-02-05T00:35:22;6.60;;;3.93;;
7657;SDS011;8462;53.156;8.220;2023-02-05T00:37:49;4.57;;;3.53;;
7657;SDS011;8462;53.156;8.220;2023-02-05T00:40:17;7.93;;;3.70;;
7657;SDS011;8462;53.156;8.220;2023-02-05T00:42:44;4.47;;;3.43;;
7657;SDS011;8462;53.156;8.220;2023-02-05T00:45:13;6.83;;;3.70;;
7657;SDS011;8462;53.156;8.220;2023-02-05T00:47:39;3.97;;;3.37;;
7657;SDS011;8462;53.156;8.220;2023-02-05T00:50:07;4.20;;;3.30;;
7657;SDS011;8462;53.156;8.220;2023-02-05T00:52:34;7.57;;;3.97;;
7657;SDS011;8462;53.156;8.220;2023-02-05T00:55:01;4.30;;;3.20;;
7657;SDS011;8462;53.156;8.220;2023-02-05T00:57:28;3.60;;;3.30;;
7657;SDS011;8462;53.156;8.220;2023-02-05T00:59:54;6.87;;;3.70;;
7657;SDS011;8462;53.156;8.220;2023-02-05T01:02:23;6.30;;;3.33;;
7657;SDS011;8462;53.156;8.220;2023-02-05T01:04:50;4.03;;;3.03;;
7657;SDS011;8462;53.156;8.220;2023-02-05T01:07:17;4.50;;;3.20;;
7657;SDS011;8462;53.156;8.220;2023-02-05T01:09:44;3.40;;;2.90;;
7657;SDS011;8462;53.156;8.220;2023-02-05T01:12:11;4.03;;;3.37;;
7657;SDS011;8462;53.156;8.220;2023-02-05T01:14:41;6.17;;;3.40;;
7657;SDS011;8462;53.156;8.220;2023-02-05T01:17:08;5.37;;;3.73;;
7657;SDS011;8462;53.156;8.220;2023-02-05T01:19:36;5.40;;;3.43;;
7657;SDS011;8462;53.156;8.220;2023-02-05T01:22:03;4.07;;;2.90;;
7657;SDS011;8462;53.156;8.220;2023-02-05T01:24:30;5.27;;;3.63;;
7657;SDS011;8462;53.156;8.220;2023-02-05T01:26:57;4.10;;;3.47;;
7657;SDS011;8462;53.156;8.220;2023-02-05T01:29:25;4.13;;;3.23;;
7657;SDS011;8462;53.156;8.220;2023-02-05T01:31:52;4.63;;;3.30;;
7657;SDS011;8462;53.156;8.220;2023-02-05T01:34:18;4.27;;;3.30;;
7657;SDS011;8462;53.156;8.220;2023-02-05T01:36:47;5.33;;;4.07;;
7657;SDS011;8462;53.156;8.220;2023-02-05T01:39:14;4.93;;;3.47;;
7657;SDS011;8462;53.156;8.220;2023-02-05T01:41:41;5.30;;;3.20;;
7657;SDS011;8462;53.156;8.220;2023-02-05T01:44:10;3.37;;;3.00;;
7657;SDS011;8462;53.156;8.220;2023-02-05T01:46:39;4.87;;;2.93;;
7657;SDS011;8462;53.156;8.220;2023-02-05T01:49:08;4.20;;;3.17;;
7657;SDS011;8462;53.156;8.220;2023-02-05T01:51:39;3.53;;;3.17;;
7657;SDS011;8462;53.156;8.220;2023-02-05T01:54:08;4.43;;;3.67;;
7657;SDS011;8462;53.156;8.220;2023-02-05T01:56:35;5.60;;;3.27;;
7657;SDS011;8462;53.156;8.220;2023-02-05T01:59:06;4.53;;;3.60;;
7657;SDS011;8462;53.156;8.220;2023-02-05T02:01:37;5.27;;;3.83;;
7657;SDS011;8462;53.156;8.220;2023-02-05T02:04:05;4.00;;;3.20;;
7657;SDS011;8462;53.156;8.220;2023-02-05T02:06:35;3.20;;;2.90;;
7657;SDS011;8462;53.156;8.220;2023-02-05T02:09:03;6.73;;;3.77;;
7657;SDS011;8462;53.156;8.220;2023-02-05T02:11:34;4.40;;;3.40;;
7657;SDS011;8462;53.156;8.220;2023-02-05T02:14:03;7.80;;;3.17;;
7657;SDS011;8462;53.156;8.220;2023-02-05T02:16:34;4.30;;;3.67;;
7657;SDS011;8462;53.156;8.220;2023-02-05T02:19:03;5.47;;;3.53;;
7657;SDS011;8462;53.156;8.220;2023-02-05T02:21:56;5.47;;;3.50;;
7657;SDS011;8462;53.156;8.220;2023-02-05T02:24:47;5.30;;;3.13;;
7657;SDS011;8462;53.156;8.220;2023-02-05T02:27:34;6.87;;;4.03;;
7657;SDS011;8462;53.156;8.220;2023-02-05T02:30:04;5.43;;;3.60;;
7657;SDS011;8462;53.156;8.220;2023-02-05T02:32:36;4.73;;;3.33;;
7657;SDS011;8462;53.156;8.220;2023-02-05T02:35:06;5.00;;;3.80;;
7657;SDS011;8462;53.156;8.220;2023-02-05T02:37:39;4.50;;;3.30;;
7657;SDS011;8462;53.156;8.220;2023-02-05T02:40:14;4.97;;;3.50;;
7657;SDS011;8462;53.156;8.220;2023-02-05T02:42:50;4.50;;;3.77;;
7657;SDS011;8462;53.156;8.220;2023-02-05T02:45:22;4.33;;;3.77;;
7657;SDS011;8462;53.156;8.220;2023-02-05T02:47:54;4.37;;;3.70;;
7657;SDS011;8462;53.156;8.220;2023-02-05T02:50:26;6.43;;;4.40;;
7657;SDS011;8462;53.156;8.220;2023-02-05T02:52:59;4.57;;;3.50;;
7657;SDS011;8462;53.156;8.220;2023-02-05T02:55:29;7.13;;;3.90;;
7657;SDS011;8462;53.156;8.220;2023-02-05T02:58:02;8.20;;;4.10;;
7657;SDS011;8462;53.156;8.220;2023-02-05T03:00:32;7.10;;;4.07;;
7657;SDS011;8462;53.156;8.220;2023-02-05T03:03:01;7.10;;;3.50;;
7657;SDS011;8462;53.156;8.220;2023-02-05T03:05:32;5.50;;;4.20;;
7657;SDS011;8462;53.156;8.220;2023-02-05T03:08:02;10.90;;;5.73;;
7657;SDS011;8462;53.156;8.220;2023-02-05T03:10:34;4.77;;;4.27;;
7657;SDS011;8462;53.156;8.220;2023-02-05T03:13:06;5.07;;;3.70;;
7657;SDS011;8462;53.156;8.220;2023-02-05T03:15:34;4.73;;;3.57;;
7657;SDS011;8462;53.156;8.220;2023-02-05T03:18:02;5.50;;;4.33;;
7657;SDS011;8462;53.156;8.220;2023-02-05T03:20:30;6.23;;;3.60;;
7657;SDS011;8462;53.156;8.220;2023-02-05T03:23:01;4.83;;;3.27;;
7657;SDS011;8462;53.156;8.220;2023-02-05T03:25:28;5.27;;;4.00;;
7657;SDS011;8462;53.156;8.220;2023-02-05T03:27:57;5.47;;;3.93;;
7657;SDS011;8462;53.156;8.220;2023-02-05T03:30:31;6.57;;;4.17;;
7657;SDS011;8462;53.156;8.220;2023-02-05T03:33:12;6.70;;;3.97;;
7657;SDS011;8462;53.156;8.220;2023-02-05T03:35:53;5.47;;;3.70;;
7657;SDS011;8462;53.156;8.220;2023-02-05T03:38:28;3.77;;;3.37;;
7657;SDS011;8462;53.156;8.220;2023-02-05T03:41:09;5.00;;;3.60;;
7657;SDS011;8462;53.156;8.220;2023-02-05T03:43:46;5.47;;;3.70;;
7657;SDS011;8462;53.156;8.220;2023-02-05T03:46:24;4.23;;;3.80;;
7657;SDS011;8462;53.156;8.220;2023-02-05T03:49:01;5.63;;;3.40;;
7657;SDS011;8462;53.156;8.220;2023-02-05T03:51:33;4.37;;;3.90;;
7657;SDS011;8462;53.156;8.220;2023-02-05T03:54:08;5.90;;;3.80;;
7657;SDS011;8462;53.156;8.220;2023-02-05T03:56:43;6.03;;;3.90;;
7657;SDS011;8462;53.156;8.220;2023-02-05T03:59:16;5.17;;;3.67;;
7657;SDS011;8462;53.156;8.220;2023-02-05T04:01:46;4.90;;;3.67;;
7657;SDS011;8462;53.156;8.220;2023-02-05T04:04:13;4.47;;;4.07;;
7657;SDS011;8462;53.156;8.220;2023-02-05T04:06:41;5.97;;;3.93;;
7657;SDS011;8462;53.156;8.220;2023-02-05T04:09:17;5.97;;;4.43;;
7657;SDS011;8462;53.156;8.220;2023-02-05T04:11:46;5.30;;;4.03;;
7657;SDS011;8462;53.156;8.220;2023-02-05T04:14:17;6.33;;;3.90;;
7657;SDS011;8462;53.156;8.220;2023-02-05T04:16:45;5.90;;;3.70;;
7657;SDS011;8462;53.156;8.220;2023-02-05T04:19:12;4.77;;;3.70;;
7657;SDS011;8462;53.156;8.220;2023-02-05T04:21:39;7.77;;;4.23;;
7657;SDS011;8462;53.156;8.220;2023-02-05T04:24:06;4.07;;;3.67;;
7657;SDS011;8462;53.156;8.220;2023-02-05T04:26:34;6.00;;;3.97;;
7657;SDS011;8462;53.156;8.220;2023-02-05T04:29:04;7.23;;;4.73;;
7657;SDS011;8462;53.156;8.220;2023-02-05T04:31:37;5.40;;;3.70;;
7657;SDS011;8462;53.156;8.220;2023-02-05T04:34:05;8.00;;;4.27;;
7657;SDS011;8462;53.156;8.220;2023-02-05T04:36:32;5.23;;;4.00;;
7657;SDS011;8462;53.156;8.220;2023-02-05T04:39:00;5.20;;;4.27;;
7657;SDS011;8462;53.156;8.220;2023-02-05T04:41:27;5.87;;;4.10;;
7657;SDS011;8462;53.156;8.220;2023-02-05T04:43:54;8.10;;;4.20;;
7657;SDS011;8462;53.156;8.220;2023-02-05T04:46:21;5.97;;;4.63;;
7657;SDS011;8462;53.156;8.220;2023-02-05T04:48:48;6.80;;;4.60;;
7657;SDS011;8462;53.156;8.220;2023-02-05T04:51:16;6.50;;;4.47;;
7657;SDS011;8462;53.156;8.220;2023-02-05T04:53:43;7.30;;;4.97;;
7657;SDS011;8462;53.156;8.220;2023-02-05T04:56:10;5.30;;;4.80;;
7657;SDS011;8462;53.156;8.220;2023-02-05T04:58:38;7.33;;;4.70;;
7657;SDS011;8462;53.156;8.220;2023-02-05T05:01:09;5.47;;;4.57;;
7657;SDS011;8462;53.156;8.220;2023-02-05T05:03:37;6.00;;;4.70;;
7657;SDS011;8462;53.156;8.220;2023-02-05T05:06:04;5.90;;;4.60;;
7657;SDS011;8462;53.156;8.220;2023-02-05T05:08:33;7.03;;;4.50;;
7657;SDS011;8462;53.156;8.220;2023-02-05T05:11:04;6.57;;;4.87;;
7657;SDS011;8462;53.156;8.220;2023-02-05T05:13:32;9.50;;;5.00;;
7657;SDS011;8462;53.156;8.220;2023-02-05T05:15:59;5.50;;;4.53;;
7657;SDS011;8462;53.156;8.220;2023-02-05T05:18:27;5.50;;;4.60;;
7657;SDS011;8462;53.156;8.220;2023-02-05T05:20:54;5.83;;;4.70;;
7657;SDS011;8462;53.156;8.220;2023-02-05T05:23:21;8.07;;;5.37;;
7657;SDS011;8462;53.156;8.220;2023-02-05T05:25:49;7.87;;;5.30;;
7657;SDS011;8462;53.156;8.220;2023-02-05T05:28:16;8.97;;;5.57;;
7657;SDS011;8462;53.156;8.220;2023-02-05T05:30:44;7.40;;;5.17;;
7657;SDS011;8462;53.156;8.220;2023-02-05T05:33:12;6.27;;;5.43;;
7657;SDS011;8462;53.156;8.220;2023-02-05T05:35:39;8.23;;;5.87;;
7657;SDS011;8462;53.156;8.220;2023-02-05T05:38:06;6.03;;;5.17;;
7657;SDS011;8462;53.156;8.220;2023-02-05T05:40:33;6.47;;;5.33;;
7657;SDS011;8462;53.156;8.220;2023-02-05T05:43:19;8.27;;;5.50;;
7657;SDS011;8462;53.156;8.220;2023-02-05T05:46:04;7.53;;;5.80;;
7657;SDS011;8462;53.156;8.220;2023-02-05T05:48:32;6.93;;;5.70;;
7657;SDS011;8462;53.156;8.220;2023-02-05T05:50:59;6.47;;;5.70;;
7657;SDS011;8462;53.156;8.220;2023-02-05T05:53:27;8.67;;;5.70;;
7657;SDS011;8462;53.156;8.220;2023-02-05T05:55:54;7.47;;;6.00;;
7657;SDS011;8462;53.156;8.220;2023-02-05T05:58:22;10.13;;;6.00;;
7657;SDS011;8462;53.156;8.220;2023-02-05T06:00:49;6.73;;;5.70;;
7657;SDS011;8462;53.156;8.220;2023-02-05T06:03:16;8.80;;;6.23;;
7657;SDS011;8462;53.156;8.220;2023-02-05T06:05:42;7.57;;;5.87;;
7657;SDS011;8462;53.156;8.220;2023-02-05T06:08:09;9.20;;;6.33;;
7657;SDS011;8462;53.156;8.220;2023-02-05T06:10:36;9.37;;;5.87;;
7657;SDS011;8462;53.156;8.220;2023-02-05T06:13:03;9.47;;;6.50;;
7657;SDS011;8462;53.156;8.220;2023-02-05T06:15:31;8.57;;;6.23;;
7657;SDS011;8462;53.156;8.220;2023-02-05T06:17:59;8.17;;;5.93;;
7657;SDS011;8462;53.156;8.220;2023-02-05T06:20:25;8.43;;;6.07;;
7657;SDS011;8462;53.156;8.220;2023-02-05T06:22:52;8.33;;;6.50;;
7657;SDS011;8462;53.156;8.220;2023-02-05T06:25:19;7.73;;;5.97;;
7657;SDS011;8462;53.156;8.220;2023-02-05T06:27:46;11.00;;;6.33;;
7657;SDS011;8462;53.156;8.220;2023-02-05T06:30:14;9.83;;;6.50;;
7657;SDS011;8462;53.156;8.220;2023-02-05T06:32:42;9.90;;;6.13;;
7657;SDS011;8462;53.156;8.220;2023-02-05T06:35:09;7.60;;;5.80;;
7657;SDS011;8462;53.156;8.220;2023-02-05T06:37:36;7.87;;;6.00;;
7657;SDS011;8462;53.156;8.220;2023-02-05T06:40:03;7.97;;;6.23;;
7657;SDS011;8462;53.156;8.220;2023-02-05T06:42:30;8.27;;;6.17;;
7657;SDS011;8462;53.156;8.220;2023-02-05T06:44:57;10.73;;;6.73;;
7657;SDS011;8462;53.156;8.220;2023-02-05T06:47:24;8.43;;;6.10;;
7657;SDS011;8462;53.156;8.220;2023-02-05T06:49:52;8.07;;;6.47;;
7657;SDS011;8462;53.156;8.220;2023-02-05T06:52:19;8.20;;;6.30;;
7657;SDS011;8462;53.156;8.220;2023-02-05T06:54:46;9.13;;;6.17;;
7657;SDS011;8462;53.156;8.220;2023-02-05T06:57:13;9.87;;;6.70;;
7657;SDS011;8462;53.156;8.220;2023-02-05T06:59:39;7.63;;;6.83;;
7657;SDS011;8462;53.156;8.220;2023-02-05T07:02:08;9.13;;;6.67;;
7657;SDS011;8462;53.156;8.220;2023-02-05T07:04:35;9.40;;;6.50;;
7657;SDS011;8462;53.156;8.220;2023-02-05T07:07:03;9.93;;;6.87;;
7657;SDS011;8462;53.156;8.220;2023-02-05T07:09:30;8.33;;;6.27;;
7657;SDS011;8462;53.156;8.220;2023-02-05T07:11:57;8.60;;;7.07;;
7657;SDS011;8462;53.156;8.220;2023-02-05T07:14:24;8.57;;;7.17;;
7657;SDS011;8462;53.156;8.220;2023-02-05T07:16:51;9.30;;;7.27;;
7657;SDS011;8462;53.156;8.220;2023-02-05T07:19:18;11.93;;;7.40;;
7657;SDS011;8462;53.156;8.220;2023-02-05T07:21:45;9.13;;;7.27;;
7657;SDS011;8462;53.156;8.220;2023-02-05T07:24:14;11.07;;;7.87;;
7657;SDS011;8462;53.156;8.220;2023-02-05T07:26:40;16.10;;;10.73;;
7657;SDS011;8462;53.156;8.220;2023-02-05T07:29:09;14.07;;;8.47;;
7657;SDS011;8462;53.156;8.220;2023-02-05T07:31:36;8.67;;;7.23;;
7657;SDS011;8462;53.156;8.220;2023-02-05T07:34:03;9.33;;;7.50;;
7657;SDS011;8462;53.156;8.220;2023-02-05T07:36:30;12.23;;;7.50;;
7657;SDS011;8462;53.156;8.220;2023-02-05T07:38:56;9.83;;;8.00;;
7657;SDS011;8462;53.156;8.220;2023-02-05T07:41:25;10.57;;;7.17;;
7657;SDS011;8462;53.156;8.220;2023-02-05T07:43:52;9.13;;;7.60;;
7657;SDS011;8462;53.156;8.220;2023-02-05T07:46:19;9.37;;;7.13;;
7657;SDS011;8462;53.156;8.220;2023-02-05T07:48:47;12.13;;;7.53;;
7657;SDS011;8462;53.156;8.220;2023-02-05T07:51:15;12.40;;;8.50;;
7657;SDS011;8462;53.156;8.220;2023-02-05T07:53:43;11.03;;;7.80;;
7657;SDS011;8462;53.156;8.220;2023-02-05T07:56:10;10.63;;;7.53;;
7657;SDS011;8462;53.156;8.220;2023-02-05T07:58:39;12.17;;;8.30;;
7657;SDS011;8462;53.156;8.220;2023-02-05T08:01:06;12.37;;;8.37;;
7657;SDS011;8462;53.156;8.220;2023-02-05T08:03:33;10.00;;;7.20;;
7657;SDS011;8462;53.156;8.220;2023-02-05T08:06:02;10.70;;;7.90;;
7657;SDS011;8462;53.156;8.220;2023-02-05T08:08:30;8.30;;;7.10;;
7657;SDS011;8462;53.156;8.220;2023-02-05T08:10:57;11.10;;;7.27;;
7657;SDS011;8462;53.156;8.220;2023-02-05T08:13:26;11.60;;;7.63;;
7657;SDS011;8462;53.156;8.220;2023-02-05T08:15:54;12.57;;;8.37;;
7657;SDS011;8462;53.156;8.220;2023-02-05T08:18:21;10.03;;;7.83;;
7657;SDS011;8462;53.156;8.220;2023-02-05T08:20:50;11.17;;;8.57;;
7657;SDS011;8462;53.156;8.220;2023-02-05T08:23:17;15.17;;;8.43;;
7657;SDS011;8462;53.156;8.220;2023-02-05T08:25:44;10.03;;;7.80;;
7657;SDS011;8462;53.156;8.220;2023-02-05T08:28:11;14.93;;;8.53;;
7657;SDS011;8462;53.156;8.220;2023-02-05T08:30:38;12.70;;;8.20;;
7657;SDS011;8462;53.156;8.220;2023-02-05T08:33:07;10.90;;;7.50;;
7657;SDS011;8462;53.156;8.220;2023-02-05T08:35:34;10.53;;;7.70;;
7657;SDS011;8462;53.156;8.220;2023-02-05T08:38:01;11.53;;;8.03;;
7657;SDS011;8462;53.156;8.220;2023-02-05T08:40:28;11.03;;;8.23;;
7657;SDS011;8462;53.156;8.220;2023-02-05T08:42:55;13.90;;;7.97;;
7657;SDS011;8462;53.156;8.220;2023-02-05T08:45:24;8.90;;;7.53;;
7657;SDS011;8462;53.156;8.220;2023-02-05T08:47:51;11.87;;;8.57;;
7657;SDS011;8462;53.156;8.220;2023-02-05T08:50:20;11.67;;;7.67;;
7657;SDS011;8462;53.156;8.220;2023-02-05T08:52:47;13.87;;;9.63;;
7657;SDS011;8462;53.156;8.220;2023-02-05T08:55:15;13.67;;;8.57;;
7657;SDS011;8462;53.156;8.220;2023-02-05T08:57:43;12.47;;;7.73;;
7657;SDS011;8462;53.156;8.220;2023-02-05T09:00:11;10.33;;;8.13;;
7657;SDS011;8462;53.156;8.220;2023-02-05T09:02:39;12.93;;;8.37;;
7657;SDS011;8462;53.156;8.220;2023-02-05T09:05:07;12.33;;;8.47;;
7657;SDS011;8462;53.156;8.220;2023-02-05T09:07:35;15.87;;;8.57;;
7657;SDS011;8462;53.156;8.220;2023-02-05T09:10:03;12.13;;;8.37;;
7657;SDS011;8462;53.156;8.220;2023-02-05T09:12:31;12.77;;;8.63;;
7657;SDS011;8462;53.156;8.220;2023-02-05T09:14:58;15.00;;;10.37;;
7657;SDS011;8462;53.156;8.220;2023-02-05T09:17:25;11.63;;;8.90;;
7657;SDS011;8462;53.156;8.220;2023-02-05T09:19:52;14.50;;;8.97;;
7657;SDS011;8462;53.156;8.220;2023-02-05T09:22:19;13.37;;;9.67;;
7657;SDS011;8462;53.156;8.220;2023-02-05T09:24:47;15.13;;;8.27;;
7657;SDS011;8462;53.156;8.220;2023-02-05T09:27:14;11.37;;;8.60;;
7657;SDS011;8462;53.156;8.220;2023-02-05T09:29:41;13.00;;;8.90;;
7657;SDS011;8462;53.156;8.220;2023-02-05T09:32:08;16.57;;;9.60;;
7657;SDS011;8462;53.156;8.220;2023-02-05T09:34:34;12.67;;;9.67;;
7657;SDS011;8462;53.156;8.220;2023-02-05T09:37:01;13.07;;;9.17;;
7657;SDS011;8462;53.156;8.220;2023-02-05T09:39:29;15.17;;;10.43;;
7657;SDS011;8462;53.156;8.220;2023-02-05T09:41:59;13.17;;;9.97;;
7657;SDS011;8462;53.156;8.220;2023-02-05T09:44:40;14.83;;;10.97;;
7657;SDS011;8462;53.156;8.220;2023-02-05T09:47:15;15.77;;;9.23;;
7657;SDS011;8462;53.156;8.220;2023-02-05T09:49:51;13.20;;;10.40;;
7657;SDS011;8462;53.156;8.220;2023-02-05T09:52:23;14.33;;;10.10;;
7657;SDS011;8462;53.156;8.220;2023-02-05T09:54:54;15.00;;;10.23;;
7657;SDS011;8462;53.156;8.220;2023-02-05T09:57:30;18.80;;;10.80;;
7657;SDS011;8462;53.156;8.220;2023-02-05T09:59:59;17.67;;;10.87;;
7657;SDS011;8462;53.156;8.220;2023-02-05T10:02:28;15.33;;;11.23;;
7657;SDS011;8462;53.156;8.220;2023-02-05T10:05:04;14.17;;;10.80;;
7657;SDS011;8462;53.156;8.220;2023-02-05T10:07:39;13.57;;;10.60;;
7657;SDS011;8462;53.156;8.220;2023-02-05T10:10:22;17.60;;;11.20;;
7657;SDS011;8462;53.156;8.220;2023-02-05T10:13:05;15.63;;;11.30;;
7657;SDS011;8462;53.156;8.220;2023-02-05T10:15:48;15.40;;;10.87;;
7657;SDS011;8462;53.156;8.220;2023-02-05T10:18:28;17.83;;;11.87;;
7657;SDS011;8462;53.156;8.220;2023-02-05T10:21:06;16.50;;;11.97;;
7657;SDS011;8462;53.156;8.220;2023-02-05T10:23:59;18.00;;;12.23;;
7657;SDS011;8462;53.156;8.220;2023-02-05T10:26:43;16.73;;;11.97;;
7657;SDS011;8462;53.156;8.220;2023-02-05T10:29:17;19.00;;;12.23;;
7657;SDS011;8462;53.156;8.220;2023-02-05T10:31:58;19.07;;;12.50;;
7657;SDS011;8462;53.156;8.220;2023-02-05T10:34:48;20.70;;;12.07;;
7657;SDS011;8462;53.156;8.220;2023-02-05T10:37:23;21.30;;;11.90;;
7657;SDS011;8462;53.156;8.220;2023-02-05T10:39:59;17.37;;;11.07;;
7657;SDS011;8462;53.156;8.220;2023-02-05T10:42:30;20.37;;;12.23;;
7657;SDS011;8462;53.156;8.220;2023-02-05T10:45:05;16.57;;;11.90;;
7657;SDS011;8462;53.156;8.220;2023-02-05T10:47:55;21.33;;;12.07;;
7657;SDS011;8462;53.156;8.220;2023-02-05T10:50:35;14.70;;;10.73;;
7657;SDS011;8462;53.156;8.220;2023-02-05T10:53:12;16.20;;;11.13;;
7657;SDS011;8462;53.156;8.220;2023-02-05T10:55:43;15.00;;;10.70;;
7657;SDS011;8462;53.156;8.220;2023-02-05T10:58:18;18.73;;;12.17;;
7657;SDS011;8462;53.156;8.220;2023-02-05T11:00:56;16.33;;;11.17;;
7657;SDS011;8462;53.156;8.220;2023-02-05T11:03:25;14.93;;;10.10;;
7657;SDS011;8462;53.156;8.220;2023-02-05T11:05:52;16.40;;;10.03;;
7657;SDS011;8462;53.156;8.220;2023-02-05T11:08:33;15.90;;;10.33;;
7657;SDS011;8462;53.156;8.220;2023-02-05T11:11:01;15.13;;;10.10;;
7657;SDS011;8462;53.156;8.220;2023-02-05T11:13:29;21.90;;;10.50;;
7657;SDS011;8462;53.156;8.220;2023-02-05T11:15:58;15.47;;;10.07;;
7657;SDS011;8462;53.156;8.220;2023-02-05T11:18:28;15.23;;;10.30;;
7657;SDS011;8462;53.156;8.220;2023-02-05T11:21:01;17.27;;;11.37;;
7657;SDS011;8462;53.156;8.220;2023-02-05T11:23:30;15.40;;;10.00;;
7657;SDS011;8462;53.156;8.220;2023-02-05T11:26:06;16.07;;;10.27;;
7657;SDS011;8462;53.156;8.220;2023-02-05T11:28:35;15.73;;;10.90;;
7657;SDS011;8462;53.156;8.220;2023-02-05T11:31:18;16.20;;;11.23;;
7657;SDS011;8462;53.156;8.220;2023-02-05T11:33:49;17.90;;;11.20;;
7657;SDS011;8462;53.156;8.220;2023-02-05T11:36:17;15.63;;;10.70;;
7657;SDS011;8462;53.156;8.220;2023-02-05T11:38:48;14.80;;;10.50;;
7657;SDS011;8462;53.156;8.220;2023-02-05T11:41:25;14.37;;;10.07;;
7657;SDS011;8462;53.156;8.220;2023-02-05T11:43:53;20.23;;;11.53;;
7657;SDS011;8462;53.156;8.220;2023-02-05T11:46:23;15.83;;;9.70;;
7657;SDS011;8462;53.156;8.220;2023-02-05T11:48:53;14.33;;;9.27;;
7657;SDS011;8462;53.156;8.220;2023-02-05T11:51:27;13.53;;;8.77;;
7657;SDS011;8462;53.156;8.220;2023-02-05T11:54:06;15.93;;;9.00;;
7657;SDS011;8462;53.156;8.220;2023-02-05T11:56:42;12.83;;;9.23;;
7657;SDS011;8462;53.156;8.220;2023-02-05T11:59:25;11.47;;;6.83;;
7657;SDS011;8462;53.156;8.220;2023-02-05T12:01:53;11.77;;;6.40;;
7657;SDS011;8462;53.156;8.220;2023-02-05T12:04:20;9.10;;;5.33;;
7657;SDS011;8462;53.156;8.220;2023-02-05T12:06:49;7.63;;;5.53;;
7657;SDS011;8462;53.156;8.220;2023-02-05T12:09:18;9.40;;;5.47;;
7657;SDS011;8462;53.156;8.220;2023-02-05T12:14:43;7.73;;;4.07;;
7657;SDS011;8462;53.156;8.220;2023-02-05T12:17:23;14.30;;;7.73;;
7657;SDS011;8462;53.156;8.220;2023-02-05T12:19:57;10.50;;;4.23;;
7657;SDS011;8462;53.156;8.220;2023-02-05T12:22:43;6.73;;;3.40;;
7657;SDS011;8462;53.156;8.220;2023-02-05T12:25:28;6.60;;;2.90;;
7657;SDS011;8462;53.156;8.220;2023-02-05T12:28:03;6.57;;;3.20;;
7657;SDS011;8462;53.156;8.220;2023-02-05T12:30:47;10.10;;;4.43;;
7657;SDS011;8462;53.156;8.220;2023-02-05T12:33:46;10.87;;;2.23;;
7657;SDS011;8462;53.156;8.220;2023-02-05T12:36:25;6.17;;;1.93;;
7657;SDS011;8462;53.156;8.220;2023-02-05T12:39:06;13.50;;;2.90;;
7657;SDS011;8462;53.156;8.220;2023-02-05T12:41:44;9.37;;;2.67;;
7657;SDS011;8462;53.156;8.220;2023-02-05T12:44:24;8.33;;;2.10;;
7657;SDS011;8462;53.156;8.220;2023-02-05T12:47:08;18.03;;;4.10;;
7657;SDS011;8462;53.156;8.220;2023-02-05T12:49:51;9.57;;;2.93;;
7657;SDS011;8462;53.156;8.220;2023-02-05T12:52:35;11.37;;;2.87;;
7657;SDS011;8462;53.156;8.220;2023-02-05T12:55:16;12.60;;;2.80;;
7657;SDS011;8462;53.156;8.220;2023-02-05T12:57:53;8.67;;;2.30;;
7657;SDS011;8462;53.156;8.220;2023-02-05T13:00:25;14.77;;;2.93;;
7657;SDS011;8462;53.156;8.220;2023-02-05T13:02:57;14.50;;;3.17;;
7657;SDS011;8462;53.156;8.220;2023-02-05T13:05:33;11.00;;;2.47;;
7657;SDS011;8462;53.156;8.220;2023-02-05T13:08:06;9.67;;;2.57;;
7657;SDS011;8462;53.156;8.220;2023-02-05T13:10:42;10.40;;;2.77;;
7657;SDS011;8462;53.156;8.220;2023-02-05T13:13:13;10.20;;;2.57;;
7657;SDS011;8462;53.156;8.220;2023-02-05T13:15:44;6.43;;;2.40;;
7657;SDS011;8462;53.156;8.220;2023-02-05T13:18:19;12.20;;;2.80;;
7657;SDS011;8462;53.156;8.220;2023-02-05T13:20:52;15.97;;;3.23;;
7657;SDS011;8462;53.156;8.220;2023-02-05T13:23:40;10.23;;;3.33;;
7657;SDS011;8462;53.156;8.220;2023-02-05T13:26:27;11.10;;;2.90;;
7657;SDS011;8462;53.156;8.220;2023-02-05T13:29:15;10.63;;;2.97;;
7657;SDS011;8462;53.156;8.220;2023-02-05T13:31:44;8.10;;;2.80;;
7657;SDS011;8462;53.156;8.220;2023-02-05T13:34:14;11.63;;;3.13;;
7657;SDS011;8462;53.156;8.220;2023-02-05T13:36:52;10.00;;;2.50;;
7657;SDS011;8462;53.156;8.220;2023-02-05T13:39:44;13.07;;;2.80;;
7657;SDS011;8462;53.156;8.220;2023-02-05T13:42:36;12.10;;;2.40;;
7657;SDS011;8462;53.156;8.220;2023-02-05T13:45:25;9.27;;;2.40;;
7657;SDS011;8462;53.156;8.220;2023-02-05T13:48:18;14.80;;;3.87;;
7657;SDS011;8462;53.156;8.220;2023-02-05T13:51:17;15.20;;;2.53;;
7657;SDS011;8462;53.156;8.220;2023-02-05T13:54:03;9.27;;;2.50;;
7657;SDS011;8462;53.156;8.220;2023-02-05T13:56:46;12.60;;;2.80;;
7657;SDS011;8462;53.156;8.220;2023-02-05T13:59:17;6.97;;;2.30;;
7657;SDS011;8462;53.156;8.220;2023-02-05T14:01:50;11.53;;;2.80;;
7657;SDS011;8462;53.156;8.220;2023-02-05T14:04:22;10.63;;;2.73;;
7657;SDS011;8462;53.156;8.220;2023-02-05T14:06:54;13.60;;;2.67;;
7657;SDS011;8462;53.156;8.220;2023-02-05T14:09:29;10.43;;;3.40;;
7657;SDS011;8462;53.156;8.220;2023-02-05T14:12:00;6.23;;;2.87;;
7657;SDS011;8462;53.156;8.220;2023-02-05T14:14:30;6.70;;;2.50;;
7657;SDS011;8462;53.156;8.220;2023-02-05T14:16:59;8.30;;;3.23;;
7657;SDS011;8462;53.156;8.220;2023-02-05T14:22:37;10.93;;;2.67;;
7657;SDS011;8462;53.156;8.220;2023-02-05T14:34:27;8.07;;;2.30;;
7657;SDS011;8462;53.156;8.220;2023-02-05T14:37:25;10.00;;;2.87;;
7657;SDS011;8462;53.156;8.220;2023-02-05T14:40:21;9.47;;;2.57;;
7657;SDS011;8462;53.156;8.220;2023-02-05T14:42:53;14.53;;;3.20;;
7657;SDS011;8462;53.156;8.220;2023-02-05T14:45:22;7.77;;;2.67;;
7657;SDS011;8462;53.156;8.220;2023-02-05T14:47:52;7.47;;;2.47;;
7657;SDS011;8462;53.156;8.220;2023-02-05T14:50:21;12.30;;;2.60;;
7657;SDS011;8462;53.156;8.220;2023-02-05T14:52:52;25.27;;;3.37;;
7657;SDS011;8462;53.156;8.220;2023-02-05T14:55:24;9.57;;;2.37;;
7657;SDS011;8462;53.156;8.220;2023-02-05T14:57:56;8.47;;;2.97;;
7657;SDS011;8462;53.156;8.220;2023-02-05T15:00:29;7.87;;;2.73;;
7657;SDS011;8462;53.156;8.220;2023-02-05T15:06:01;14.43;;;3.47;;
7657;SDS011;8462;53.156;8.220;2023-02-05T15:08:35;9.60;;;2.33;;
7657;SDS011;8462;53.156;8.220;2023-02-05T15:11:11;16.60;;;2.73;;
7657;SDS011;8462;53.156;8.220;2023-02-05T15:13:55;17.87;;;2.93;;
7657;SDS011;8462;53.156;8.220;2023-02-05T15:20:17;11.57;;;2.60;;
7657;SDS011;8462;53.156;8.220;2023-02-05T15:22:57;12.33;;;3.60;;
7657;SDS011;8462;53.156;8.220;2023-02-05T15:25:32;14.83;;;2.40;;
7657;SDS011;8462;53.156;8.220;2023-02-05T15:28:06;10.73;;;2.83;;
7657;SDS011;8462;53.156;8.220;2023-02-05T15:30:44;15.87;;;3.80;;
7657;SDS011;8462;53.156;8.220;2023-02-05T15:33:24;17.10;;;3.60;;
7657;SDS011;8462;53.156;8.220;2023-02-05T15:35:58;11.27;;;3.63;;
7657;SDS011;8462;53.156;8.220;2023-02-05T15:38:31;6.17;;;2.10;;
7657;SDS011;8462;53.156;8.220;2023-02-05T15:41:03;15.90;;;2.83;;
7657;SDS011;8462;53.156;8.220;2023-02-05T15:43:32;8.20;;;2.50;;
7657;SDS011;8462;53.156;8.220;2023-02-05T15:46:01;8.13;;;2.97;;
7657;SDS011;8462;53.156;8.220;2023-02-05T15:48:30;11.40;;;2.80;;
7657;SDS011;8462;53.156;8.220;2023-02-05T15:51:00;11.47;;;2.93;;
7657;SDS011;8462;53.156;8.220;2023-02-05T15:53:36;12.73;;;3.83;;
7657;SDS011;8462;53.156;8.220;2023-02-05T15:56:09;17.30;;;3.63;;